Zimowe Mistrzostwa Polski Seniorow i Mlodziezowcow 19-20 lat w PlywaniuShort Course (25m)
Poznan (POL)15 - 18 Dec 2011
Men, 1500m Freestyle, Timed Final,  Open17 Dec 2011 - 11:07TimePts.
1.SAWRYMOWICZ, Mateusz1987POLMKP Szczecin14:41.16891
2.SZUBA, Michal1993POLWKS SLASK Wroclaw15:05.09822
3.ZACZYNSKI, Karol1991POLAZS AWF Katowice15:07.75815
4.PIELOWSKI, Krzysztof1991POLAZS UWM Olsztyn15:08.76812
5.ZABOROWSKI, Filip1994POLMKP Szczecin15:09.11811
6.KACZMARSKI, Marcin1994POLKSZO Ostrowiec Swietokrzyski15:14.28798
7.HURA, Bartosz1991POLAZS UWM Olsztyn15:21.86778
8.ZONIUK, Maciej1994POLWKS SLASK Wroclaw15:23.56774
9.BOROWICZ SKONECZNY, Sylwester1992POLAZS UWM Olsztyn15:25.01770
10.LASSEK, Bartlomiej1994POLMKS Trojka Lodz15:31.61754
11.FURTEK, Pawel1995POLWKS SLASK Wroclaw15:38.15738
12.PIORO, Artur1991POLAZS AWF Katowice15:42.52728
13.WOJDAK, Wojciech1996POLBOSiR SP Brzesko15:48.32715
14.GLYK, Wojciech1992POLAZS AWF Katowice15:48.67714
15.CZARNOTA, Mateusz1991POLUKP UNIA Oswiecim15:53.99702
16.SMEJA, Slawomir1994POLMKS Astoria Bydgoszcz15:54.36701
17.BIS, Daniel1995POLUKS G8 Bielany Warszawa15:56.51696
18.TOWAREK, Sebastian1993POLWKS SLASK Wroclaw15:56.84696
19.GASIOR, Patryk1994POLMKS POLONIA Warszawa16:07.97672
20.POLAWSKI, Mariusz1993POLUKS G8 Bielany Warszawa16:15.24657
21.CIESIELSKI, Filip1996POLMUKS "15" Bydgoszcz16:24.34639
22.HOFFMANN, Robert1995POLTS OLIMPIA Poznan16:26.14636
23.LOWICKI, Marcin1995POLUKS NAWA Skierniewice16:31.26626
24.MARCHEL, Adrian1995POLMKS JUVENIA Bialystok16:34.27620
25.HORALA, Damian1996POLKS WARTA Poznan16:38.70612
26.BOROWCZYK, Oskar1996POLKS AZS Poznan16:49.99592
27.KOTLEWSKI, Michal1994POLMKS ZRYW Opole16:55.57582
28.WLODARCZAK, Pawel1996POLKS WARTA Poznan17:45.76503
29.PAWLAK, Tomasz1995POLTrojka Sroda Wielkopolska18:09.43471
DNFHRENIAK, Maciej1989POLAZS AWF KatowiceNT-